createdAt,value
2019-02-04T00:00:47.740Z,3.90
2019-02-04T00:03:20.172Z,4.60
2019-02-04T00:05:51.848Z,5.30
2019-02-04T00:08:23.660Z,4.73
2019-02-04T00:10:55.310Z,4.37
2019-02-04T00:13:26.879Z,4.37
2019-02-04T00:15:58.432Z,4.10
2019-02-04T00:18:30.092Z,4.13
2019-02-04T00:21:01.627Z,5.40
2019-02-04T00:23:33.269Z,4.77
2019-02-04T00:26:05.221Z,6.43
2019-02-04T00:28:36.808Z,5.13
2019-02-04T00:31:08.438Z,4.97
2019-02-04T00:33:40.380Z,4.33
2019-02-04T00:36:11.921Z,4.43
2019-02-04T00:38:43.629Z,4.23
2019-02-04T00:41:15.249Z,4.37
2019-02-04T00:43:46.920Z,3.70
2019-02-04T00:46:19.138Z,3.97
2019-02-04T00:48:50.659Z,5.00
2019-02-04T00:51:22.388Z,4.43
2019-02-04T00:53:53.901Z,4.40
2019-02-04T00:56:25.401Z,4.03
2019-02-04T00:58:57.198Z,5.43
2019-02-04T01:01:28.890Z,6.80
2019-02-04T01:04:00.492Z,6.00
2019-02-04T01:06:33.145Z,4.73
2019-02-04T01:09:06.139Z,5.27
2019-02-04T01:11:37.692Z,6.37
2019-02-04T01:14:09.940Z,4.23
2019-02-04T01:16:41.604Z,4.30
2019-02-04T01:19:13.358Z,5.00
2019-02-04T01:21:45.074Z,4.30
2019-02-04T01:24:16.636Z,4.70
2019-02-04T01:26:48.887Z,6.83
2019-02-04T01:29:20.420Z,8.53
2019-02-04T01:31:52.000Z,9.30
2019-02-04T01:34:24.848Z,6.93
2019-02-04T01:36:56.538Z,10.10
2019-02-04T01:39:28.106Z,9.20
2019-02-04T01:41:59.672Z,8.40
2019-02-04T01:44:31.308Z,8.87
2019-02-04T01:47:02.888Z,8.20
2019-02-04T01:49:34.441Z,9.37
2019-02-04T01:52:05.980Z,10.57
2019-02-04T01:54:37.511Z,9.60
2019-02-04T01:57:09.151Z,9.27
2019-02-04T01:59:40.890Z,9.60
2019-02-04T02:02:12.390Z,9.20
2019-02-04T02:04:43.891Z,10.97
2019-02-04T02:07:15.372Z,11.27
2019-02-04T02:09:46.976Z,10.10
2019-02-04T02:12:18.489Z,12.40
2019-02-04T02:14:52.461Z,16.03
2019-02-04T02:17:26.525Z,13.30
2019-02-04T02:19:57.377Z,11.50
2019-02-04T02:22:28.990Z,9.00
2019-02-04T02:25:00.769Z,9.47
2019-02-04T02:27:35.351Z,6.50
2019-02-04T02:30:08.330Z,6.90
2019-02-04T02:32:40.219Z,7.97
2019-02-04T02:35:11.743Z,6.50
2019-02-04T02:37:43.391Z,8.80
2019-02-04T02:40:27.471Z,9.53
2019-02-04T02:42:59.240Z,10.90
2019-02-04T02:45:30.740Z,9.30
2019-02-04T02:48:02.214Z,9.47
2019-02-04T02:50:33.814Z,12.00
2019-02-04T02:53:05.477Z,9.77
2019-02-04T02:55:37.120Z,11.63
2019-02-04T02:58:08.760Z,9.73
2019-02-04T03:00:40.396Z,9.10
2019-02-04T03:03:12.022Z,8.33
2019-02-04T03:05:43.560Z,8.30
2019-02-04T03:08:15.621Z,8.20
2019-02-04T03:10:47.058Z,7.10
2019-02-04T03:13:19.724Z,8.63
2019-02-04T03:15:51.354Z,7.10
2019-02-04T03:18:22.888Z,7.70
2019-02-04T03:20:54.515Z,8.57
2019-02-04T03:23:26.150Z,8.30
2019-02-04T03:25:57.622Z,6.50
2019-02-04T03:28:29.121Z,7.57
2019-02-04T03:31:00.741Z,7.77
2019-02-04T03:33:32.491Z,8.50
2019-02-04T03:36:04.004Z,8.60
2019-02-04T03:38:35.639Z,9.00
2019-02-04T03:41:07.896Z,8.67
2019-02-04T03:43:39.426Z,8.00
2019-02-04T03:46:11.051Z,7.37
2019-02-04T03:48:42.565Z,8.27
2019-02-04T03:51:14.090Z,6.20
2019-02-04T03:53:45.555Z,6.30
2019-02-04T03:56:17.110Z,7.40
2019-02-04T03:58:48.808Z,6.07
2019-02-04T04:01:20.401Z,5.63
2019-02-04T04:03:52.727Z,6.97
2019-02-04T04:06:24.316Z,5.97
2019-02-04T04:08:56.367Z,5.30
2019-02-04T04:11:27.989Z,6.37
2019-02-04T04:13:59.527Z,10.17
2019-02-04T04:16:32.267Z,10.43
2019-02-04T04:19:03.859Z,8.33
2019-02-04T04:21:35.469Z,10.60
2019-02-04T04:24:07.091Z,11.53
2019-02-04T04:26:38.771Z,8.20
2019-02-04T04:29:10.481Z,6.90
2019-02-04T04:31:43.302Z,6.10
2019-02-04T04:34:15.481Z,6.77
2019-02-04T04:36:46.952Z,13.70
2019-02-04T04:39:18.696Z,13.40
2019-02-04T04:41:50.210Z,12.87
2019-02-04T04:44:21.849Z,8.67
2019-02-04T04:46:53.360Z,8.50
2019-02-04T04:49:24.933Z,6.80
2019-02-04T04:51:56.512Z,8.17
2019-02-04T04:54:28.464Z,7.33
2019-02-04T04:57:00.421Z,9.83
2019-02-04T04:59:32.058Z,8.27
2019-02-04T05:02:03.541Z,7.80
2019-02-04T05:04:35.020Z,10.33
2019-02-04T05:07:06.632Z,8.03
2019-02-04T05:09:38.549Z,6.30
2019-02-04T05:12:10.238Z,7.03
2019-02-04T05:14:41.817Z,10.07
2019-02-04T05:17:13.452Z,10.43
2019-02-04T05:19:45.179Z,11.77
2019-02-04T05:22:18.301Z,12.90
2019-02-04T05:24:49.854Z,13.57
2019-02-04T05:27:21.482Z,12.93
2019-02-04T05:29:53.181Z,16.90
2019-02-04T05:32:24.838Z,13.47
2019-02-04T05:34:57.524Z,11.27
2019-02-04T05:37:29.424Z,14.23
2019-02-04T05:40:00.962Z,13.10
2019-02-04T05:42:34.523Z,16.13
2019-02-04T05:45:07.512Z,11.53
2019-02-04T05:47:39.121Z,11.87
2019-02-04T05:50:13.824Z,12.47
2019-02-04T05:52:45.441Z,14.50
2019-02-04T05:55:18.634Z,12.53
2019-02-04T05:57:50.422Z,11.17
2019-02-04T06:00:28.458Z,10.27
2019-02-04T06:03:00.038Z,7.43
2019-02-04T06:05:31.549Z,8.00
2019-02-04T06:08:03.538Z,7.83
2019-02-04T06:10:35.113Z,8.10
2019-02-04T06:13:06.831Z,7.80
2019-02-04T06:15:38.526Z,7.73
2019-02-04T06:18:10.330Z,9.17
2019-02-04T06:20:42.111Z,8.70
2019-02-04T06:23:13.594Z,9.60
2019-02-04T06:25:45.181Z,8.30
2019-02-04T06:28:16.841Z,7.50
2019-02-04T06:30:48.511Z,8.93
2019-02-04T06:33:20.285Z,8.60
2019-02-04T06:35:51.887Z,8.27
2019-02-04T06:38:23.676Z,7.77
2019-02-04T06:40:55.350Z,8.13
2019-02-04T06:43:26.950Z,7.70
2019-02-04T06:45:58.677Z,7.57
2019-02-04T06:48:30.334Z,8.70
2019-02-04T06:51:01.952Z,8.30
2019-02-04T06:53:33.522Z,7.57
2019-02-04T06:56:05.233Z,6.93
2019-02-04T06:58:36.759Z,6.77
2019-02-04T07:01:08.368Z,6.67
2019-02-04T07:03:40.592Z,6.53
2019-02-04T07:06:12.142Z,10.87
2019-02-04T07:08:43.693Z,6.83
2019-02-04T07:11:15.320Z,5.30
2019-02-04T07:13:46.766Z,6.40
2019-02-04T07:16:18.358Z,4.40
2019-02-04T07:18:50.000Z,5.63
2019-02-04T07:21:21.647Z,5.70
2019-02-04T07:23:53.191Z,6.03
2019-02-04T07:26:24.891Z,6.47
2019-02-04T07:28:56.365Z,4.93
2019-02-04T07:31:28.799Z,5.53
2019-02-04T07:34:00.242Z,6.07
2019-02-04T07:36:31.945Z,5.87
2019-02-04T07:39:05.121Z,6.90
2019-02-04T07:41:38.339Z,6.77
2019-02-04T07:44:09.912Z,5.60
2019-02-04T07:46:43.195Z,6.47
2019-02-04T07:49:14.838Z,6.33
2019-02-04T07:51:47.068Z,6.20
2019-02-04T07:54:18.600Z,6.47
2019-02-04T07:56:50.092Z,5.90
2019-02-04T07:59:22.047Z,5.70
2019-02-04T08:01:53.481Z,5.70
2019-02-04T08:04:25.122Z,7.27
2019-02-04T08:06:56.691Z,7.00
2019-02-04T08:09:28.269Z,8.53
2019-02-04T08:12:00.092Z,6.77
2019-02-04T08:14:32.990Z,7.00
2019-02-04T08:17:04.555Z,8.83
2019-02-04T08:19:46.385Z,8.33
2019-02-04T08:22:09.500Z,7.40
2019-02-04T08:24:41.090Z,7.67
2019-02-04T08:27:12.697Z,6.83
2019-02-04T08:29:44.330Z,7.63
2019-02-04T08:32:15.921Z,6.90
2019-02-04T08:34:47.521Z,7.57
2019-02-04T08:37:18.990Z,7.03
2019-02-04T08:39:51.408Z,7.07
2019-02-04T08:42:23.048Z,8.43
2019-02-04T08:44:55.121Z,7.27
2019-02-04T08:47:26.723Z,7.50
2019-02-04T08:49:59.967Z,7.40
2019-02-04T08:52:31.605Z,6.53
2019-02-04T08:55:03.261Z,8.23
2019-02-04T08:57:34.810Z,8.93
2019-02-04T09:00:07.469Z,8.63
2019-02-04T09:02:38.982Z,9.83
2019-02-04T09:05:12.322Z,7.83
2019-02-04T09:07:44.790Z,6.30
2019-02-04T09:10:22.839Z,5.73
2019-02-04T09:12:55.250Z,5.30
2019-02-04T09:15:27.036Z,5.33
2019-02-04T09:17:58.964Z,6.43
2019-02-04T09:20:32.030Z,6.40
2019-02-04T09:23:06.066Z,4.73
2019-02-04T09:25:37.306Z,5.20
2019-02-04T09:28:08.848Z,6.60
2019-02-04T09:30:40.566Z,6.10
2019-02-04T09:33:12.177Z,7.20
2019-02-04T09:35:43.808Z,7.90
2019-02-04T09:38:15.555Z,7.83
2019-02-04T09:40:47.798Z,11.07
2019-02-04T09:43:19.594Z,8.87
2019-02-04T09:45:51.202Z,9.97
2019-02-04T09:48:25.353Z,9.13
2019-02-04T09:50:58.886Z,9.73
2019-02-04T09:53:30.420Z,12.10
2019-02-04T09:56:02.835Z,8.97
2019-02-04T09:58:34.575Z,8.20
2019-02-04T10:01:06.688Z,9.13
2019-02-04T10:03:38.381Z,7.83
2019-02-04T10:06:10.042Z,12.37
2019-02-04T10:08:41.774Z,9.90
2019-02-04T10:11:13.322Z,7.93
2019-02-04T10:13:44.862Z,8.13
2019-02-04T10:16:16.408Z,7.90
2019-02-04T10:18:48.106Z,7.43
2019-02-04T10:21:19.698Z,8.83
2019-02-04T10:23:51.389Z,7.60
2019-02-04T10:26:23.243Z,7.60
2019-02-04T10:28:55.046Z,6.12
2019-02-04T10:31:26.822Z,7.22
2019-02-04T10:33:58.424Z,6.00
2019-02-04T10:36:31.279Z,5.78
2019-02-04T10:39:04.243Z,6.20
2019-02-04T10:41:35.905Z,6.53
2019-02-04T10:44:07.977Z,5.92
2019-02-04T10:46:39.601Z,4.85
2019-02-04T10:49:11.261Z,15.90
2019-02-04T10:51:42.952Z,6.58
2019-02-04T10:54:14.679Z,5.13
2019-02-04T10:56:46.447Z,4.42
2019-02-04T10:59:18.019Z,5.08
2019-02-04T11:01:49.824Z,4.25
2019-02-04T11:04:21.442Z,5.10
2019-02-04T11:06:53.180Z,4.13
2019-02-04T11:09:24.752Z,5.10
2019-02-04T11:11:56.391Z,4.40
2019-02-04T11:14:28.041Z,4.45
2019-02-04T11:16:59.735Z,4.50
2019-02-04T11:19:31.601Z,3.90
2019-02-04T11:22:04.831Z,4.85
2019-02-04T11:24:36.505Z,4.50
2019-02-04T11:27:08.220Z,4.47
2019-02-04T11:29:39.909Z,3.93
2019-02-04T11:32:10.675Z,4.80
2019-02-04T11:34:42.315Z,3.87
2019-02-04T11:37:13.850Z,3.50
2019-02-04T11:39:46.046Z,4.23
2019-02-04T11:42:17.684Z,3.83
2019-02-04T11:44:49.468Z,3.43
2019-02-04T11:47:21.141Z,4.03
2019-02-04T11:49:52.779Z,3.63
2019-02-04T11:52:24.855Z,3.37
2019-02-04T11:54:56.561Z,3.57
2019-02-04T11:57:28.123Z,4.47
2019-02-04T11:59:59.729Z,3.50
2019-02-04T12:02:34.500Z,4.20
2019-02-04T12:05:05.770Z,4.00
2019-02-04T12:07:37.463Z,3.93
2019-02-04T12:10:11.216Z,4.37
2019-02-04T12:12:42.873Z,4.73
2019-02-04T12:15:16.394Z,6.90
2019-02-04T12:17:48.054Z,4.80
2019-02-04T12:20:20.215Z,4.33
2019-02-04T12:22:51.867Z,6.23
2019-02-04T12:25:25.057Z,5.43
2019-02-04T12:27:57.331Z,3.83
2019-02-04T12:30:40.611Z,4.07
2019-02-04T12:33:14.066Z,4.63
2019-02-04T12:35:45.639Z,4.33
2019-02-04T12:38:19.083Z,3.97
2019-02-04T12:40:50.792Z,3.37
2019-02-04T12:43:22.325Z,4.00
2019-02-04T12:45:54.891Z,5.17
2019-02-04T12:48:26.427Z,4.43
2019-02-04T12:50:58.362Z,5.87
2019-02-04T12:53:29.961Z,5.10
2019-02-04T12:56:01.722Z,3.87
2019-02-04T12:58:33.333Z,4.20
2019-02-04T13:01:05.771Z,4.20
2019-02-04T13:03:37.338Z,4.47
2019-02-04T13:06:10.538Z,3.50
2019-02-04T13:08:42.562Z,4.70
2019-02-04T13:11:14.181Z,5.00
2019-02-04T13:13:49.517Z,4.83
2019-02-04T13:16:22.631Z,7.80
2019-02-04T13:18:54.136Z,7.13
2019-02-04T13:21:25.770Z,6.90
2019-02-04T13:23:57.560Z,6.30
2019-02-04T13:26:29.824Z,6.63
2019-02-04T13:29:01.655Z,7.07
2019-02-04T13:31:33.279Z,6.47
2019-02-04T13:34:05.512Z,6.40
2019-02-04T13:36:37.153Z,8.27
2019-02-04T13:39:10.581Z,15.03
2019-02-04T13:41:43.731Z,7.47
2019-02-04T13:44:15.314Z,7.00
2019-02-04T13:46:46.946Z,8.23
2019-02-04T13:49:18.633Z,6.87
2019-02-04T13:51:57.688Z,6.17
2019-02-04T13:54:23.708Z,12.50
2019-02-04T13:56:55.279Z,8.50
2019-02-04T13:59:27.981Z,7.67
2019-02-04T14:02:00.068Z,5.00
2019-02-04T14:04:31.721Z,5.53
2019-02-04T14:07:03.491Z,5.27
2019-02-04T14:09:35.101Z,6.40
2019-02-04T14:12:07.042Z,6.63
2019-02-04T14:14:44.641Z,6.90
2019-02-04T14:17:16.222Z,7.07
2019-02-04T14:19:47.864Z,6.07
2019-02-04T14:22:19.418Z,6.80
2019-02-04T14:24:51.341Z,5.47
2019-02-04T14:27:22.893Z,5.30
2019-02-04T14:29:54.380Z,5.77
2019-02-04T14:32:25.878Z,4.27
2019-02-04T14:34:57.479Z,5.27
2019-02-04T14:37:29.507Z,5.80
2019-02-04T14:40:01.333Z,5.70
2019-02-04T14:42:33.250Z,5.47
2019-02-04T14:45:17.881Z,6.00
2019-02-04T14:48:05.874Z,5.03
2019-02-04T14:51:01.880Z,7.40
2019-02-04T14:53:58.586Z,10.87
2019-02-04T14:57:04.870Z,8.40
2019-02-04T14:59:47.981Z,9.10
2019-02-04T15:02:49.293Z,9.57
2019-02-04T15:06:06.647Z,8.97
2019-02-04T15:09:09.142Z,8.63
2019-02-04T15:11:53.582Z,7.53
2019-02-04T15:14:40.835Z,8.20
2019-02-04T15:17:52.759Z,7.90
2019-02-04T15:20:45.843Z,7.17
2019-02-04T15:23:47.693Z,7.80
2019-02-04T15:26:53.670Z,15.37
2019-02-04T15:30:08.174Z,16.90
2019-02-04T15:33:15.488Z,16.43
2019-02-04T15:36:31.601Z,13.67
2019-02-04T15:39:14.490Z,14.77
2019-02-04T15:42:32.444Z,32.07
2019-02-04T15:45:13.554Z,23.27
2019-02-04T15:48:09.671Z,21.67
2019-02-04T15:51:07.029Z,19.67
2019-02-04T15:53:38.642Z,18.73
2019-02-04T15:56:10.748Z,18.20
2019-02-04T15:58:42.430Z,18.07
2019-02-04T16:01:14.114Z,18.43
2019-02-04T16:03:45.825Z,20.23
2019-02-04T16:06:17.533Z,17.40
2019-02-04T16:08:49.687Z,13.47
2019-02-04T16:11:21.412Z,13.13
2019-02-04T16:13:52.972Z,14.70
2019-02-04T16:16:25.597Z,18.37
2019-02-04T16:18:57.307Z,18.20
2019-02-04T16:21:29.293Z,22.13
2019-02-04T16:24:02.048Z,24.07
2019-02-04T16:26:33.831Z,23.60
2019-02-04T16:29:05.839Z,24.57
2019-02-04T16:31:38.402Z,25.83
2019-02-04T16:34:10.252Z,27.07
2019-02-04T16:36:41.899Z,27.87
2019-02-04T16:39:14.163Z,26.27
2019-02-04T16:41:45.718Z,23.90
2019-02-04T16:44:17.260Z,24.13
2019-02-04T16:46:48.991Z,23.93
2019-02-04T16:49:20.607Z,20.53
2019-02-04T16:51:52.059Z,18.57
2019-02-04T16:54:24.165Z,16.30
2019-02-04T16:56:55.743Z,12.07
2019-02-04T16:59:27.345Z,18.87
2019-02-04T17:01:58.896Z,24.03
2019-02-04T17:04:30.450Z,27.17
2019-02-04T17:07:02.064Z,27.93
2019-02-04T17:09:33.704Z,28.07
2019-02-04T17:12:05.324Z,27.40
2019-02-04T17:14:36.994Z,26.93
2019-02-04T17:17:08.769Z,26.80
2019-02-04T17:19:40.464Z,25.17
2019-02-04T17:22:12.272Z,25.17
2019-02-04T17:24:43.809Z,24.80
2019-02-04T17:27:15.556Z,22.97
2019-02-04T17:29:47.230Z,22.10
2019-02-04T17:32:18.849Z,21.27
2019-02-04T17:34:50.445Z,18.97
2019-02-04T17:37:22.132Z,18.50
2019-02-04T17:39:53.792Z,18.67
2019-02-04T17:42:25.390Z,15.20
2019-02-04T17:44:56.910Z,15.50
2019-02-04T17:47:28.827Z,12.37
2019-02-04T17:50:00.334Z,12.57
2019-02-04T17:52:32.031Z,10.97
2019-02-04T17:55:03.622Z,12.37
2019-02-04T17:57:35.656Z,10.47
2019-02-04T18:00:10.706Z,9.73
2019-02-04T18:02:44.437Z,12.10
2019-02-04T18:05:17.188Z,11.93
2019-02-04T18:07:49.312Z,12.10
2019-02-04T18:10:21.206Z,11.50
2019-02-04T18:12:53.137Z,10.67
2019-02-04T18:15:25.095Z,11.43
2019-02-04T18:17:56.759Z,12.70
2019-02-04T18:20:28.388Z,12.00
2019-02-04T18:23:00.093Z,11.10
2019-02-04T18:25:34.622Z,12.10
2019-02-04T18:28:08.601Z,14.60
2019-02-04T18:30:40.757Z,13.87
2019-02-04T18:33:12.991Z,13.03
2019-02-04T18:35:45.146Z,14.40
2019-02-04T18:38:19.681Z,13.07
2019-02-04T18:40:53.662Z,12.63
2019-02-04T18:43:27.263Z,11.07
2019-02-04T18:46:00.492Z,10.67
2019-02-04T18:48:34.094Z,9.10
2019-02-04T18:51:05.836Z,8.87
2019-02-04T18:53:37.620Z,8.63
2019-02-04T18:56:09.550Z,8.33
2019-02-04T18:58:41.241Z,7.00
2019-02-04T19:01:12.853Z,6.90
2019-02-04T19:03:44.557Z,8.43
2019-02-04T19:06:16.131Z,8.43
2019-02-04T19:08:48.000Z,9.07
2019-02-04T19:11:19.602Z,7.07
2019-02-04T19:13:51.253Z,7.67
2019-02-04T19:16:22.937Z,7.07
2019-02-04T19:18:54.587Z,6.70
2019-02-04T19:21:26.522Z,6.50
2019-02-04T19:24:09.033Z,6.60
2019-02-04T19:26:31.526Z,6.97
2019-02-04T19:29:03.162Z,6.90
2019-02-04T19:31:34.832Z,7.47
2019-02-04T19:34:06.843Z,7.20
2019-02-04T19:36:38.441Z,7.83
2019-02-04T19:39:11.388Z,7.03
2019-02-04T19:41:43.993Z,8.83
2019-02-04T19:44:15.717Z,7.13
2019-02-04T19:46:47.490Z,8.83
2019-02-04T19:49:19.182Z,9.10
2019-02-04T19:51:50.893Z,9.63
2019-02-04T19:54:22.400Z,10.00
2019-02-04T19:56:54.032Z,11.03
2019-02-04T19:59:25.876Z,10.43
2019-02-04T20:01:57.761Z,10.57
2019-02-04T20:04:29.327Z,9.17
2019-02-04T20:07:00.853Z,8.70
2019-02-04T20:09:32.509Z,7.93
2019-02-04T20:12:04.518Z,7.90
2019-02-04T20:14:36.261Z,5.60
2019-02-04T20:17:07.880Z,5.83
2019-02-04T20:19:39.583Z,5.77
2019-02-04T20:22:11.215Z,6.10
2019-02-04T20:24:44.455Z,6.10
2019-02-04T20:27:16.186Z,6.47
2019-02-04T20:29:49.320Z,5.50
2019-02-04T20:32:21.442Z,6.83
2019-02-04T20:34:55.323Z,6.20
2019-02-04T20:37:26.989Z,5.60
2019-02-04T20:40:01.528Z,7.00
2019-02-04T20:42:33.309Z,6.30
2019-02-04T20:45:06.595Z,7.50
2019-02-04T20:47:38.481Z,7.73
2019-02-04T20:50:16.730Z,7.27
2019-02-04T20:52:48.180Z,7.23
2019-02-04T20:55:19.706Z,7.67
2019-02-04T20:57:53.588Z,7.60
2019-02-04T21:00:27.167Z,7.57
2019-02-04T21:03:02.030Z,6.67
2019-02-04T21:05:34.170Z,7.50
2019-02-04T21:08:06.123Z,6.93
2019-02-04T21:10:38.327Z,6.90
2019-02-04T21:13:10.115Z,8.13
2019-02-04T21:15:41.796Z,8.40
2019-02-04T21:18:14.647Z,7.07
2019-02-04T21:20:47.761Z,8.47
2019-02-04T21:23:19.960Z,6.87
2019-02-04T21:25:51.790Z,6.83
2019-02-04T21:28:23.570Z,6.70
2019-02-04T21:30:57.067Z,7.30
2019-02-04T21:33:28.721Z,7.93
2019-02-04T21:36:00.400Z,8.10
2019-02-04T21:38:33.243Z,9.43
2019-02-04T21:41:04.928Z,9.87
2019-02-04T21:43:38.046Z,10.43
2019-02-04T21:46:09.647Z,10.90
2019-02-04T21:48:41.278Z,8.67
2019-02-04T21:51:15.896Z,10.97
2019-02-04T21:53:47.759Z,8.53
2019-02-04T21:56:19.501Z,9.67
2019-02-04T21:58:51.189Z,8.00
2019-02-04T22:01:22.912Z,8.80
2019-02-04T22:03:54.606Z,8.77
2019-02-04T22:06:27.981Z,10.20
2019-02-04T22:09:00.952Z,9.40
2019-02-04T22:11:33.726Z,9.40
2019-02-04T22:14:05.756Z,9.90
2019-02-04T22:16:37.157Z,9.17
2019-02-04T22:19:09.519Z,11.67
2019-02-04T22:21:41.708Z,10.00
2019-02-04T22:24:13.596Z,11.23
2019-02-04T22:26:45.260Z,13.07
2019-02-04T22:29:17.629Z,13.77
2019-02-04T22:31:49.737Z,14.33
2019-02-04T22:34:21.727Z,14.03
2019-02-04T22:36:54.701Z,15.60
2019-02-04T22:39:27.074Z,16.87
2019-02-04T22:41:59.720Z,18.67
2019-02-04T22:44:31.311Z,19.63
2019-02-04T22:47:03.325Z,19.70
2019-02-04T22:49:35.504Z,22.10
2019-02-04T22:52:07.241Z,21.13
2019-02-04T22:54:38.789Z,17.37
2019-02-04T22:57:12.079Z,17.70
2019-02-04T22:59:43.777Z,19.17
2019-02-04T23:02:16.230Z,19.27
2019-02-04T23:04:48.367Z,19.77
2019-02-04T23:07:19.979Z,21.20
2019-02-04T23:09:54.060Z,20.07
2019-02-04T23:12:26.056Z,20.63
2019-02-04T23:14:57.766Z,19.87
2019-02-04T23:17:29.430Z,20.53
2019-02-04T23:20:01.198Z,22.37
2019-02-04T23:22:32.865Z,24.83
2019-02-04T23:25:05.517Z,24.13
2019-02-04T23:27:39.039Z,24.17
2019-02-04T23:30:11.585Z,25.30
2019-02-04T23:32:43.219Z,26.60
2019-02-04T23:35:14.796Z,27.77
2019-02-04T23:37:46.474Z,30.27
2019-02-04T23:40:19.234Z,30.03
2019-02-04T23:42:50.903Z,31.30
2019-02-04T23:45:22.575Z,31.17
2019-02-04T23:47:54.253Z,32.47
2019-02-04T23:50:26.404Z,34.27
2019-02-04T23:52:57.879Z,33.63
2019-02-04T23:55:29.464Z,26.43
2019-02-04T23:58:00.940Z,25.70
